• Join FlightAware (Why Join?)
  • Login
  • US Flag 
11:06AM EST


 

Airport Tracker/Info


-or-


 

Live Flight TrackerFlight Track Log ✈ TRS398 ✈ 16-May-2013 ✈ KMCO - KMKE

Flight Track Log - Related Links

Times and Time Zones

All times are in EDT time to prevent confusion due to time zone crossing. See the TRS398 flight status page for this flight to view local times or setup timezone preferences in your user account.

Time Position Orientation Groundspeed Altitude Reporting Facility
EDT Latitude Longitude Course Direction KTS MPH feet Rate Location/Type
02:35PM 28.4000 -81.3000 204° Southwest 163 188 1,000  Level Orlando TRACON
02:36PM 28.3667 -81.3167 204° Southwest 201 231 2,000 1,320 Climbing Orlando TRACON
02:37PM 28.3167 -81.3500 210° Southwest 250 288 3,200 1,620 Climbing Orlando TRACON
02:38PM 28.3167 -81.4167 270° West 272 313 5,200 2,160 Climbing Orlando TRACON
02:39PM 28.4000 -81.4500 341° North 296 341 7,600 2,160 Climbing Orlando TRACON
02:41PM 28.5514 -81.5006 344° North 317 365 11,600 1,740 Climbing Jacksonville Center
02:42PM 28.6497 -81.5253 348° North 335 386 12,700 1,560 Climbing Jacksonville Center
02:43PM 28.7586 -81.5497 349° North 369 425 14,800 1,920 Climbing Jacksonville Center
02:44PM 28.8672 -81.5744 349° North 390 449 16,600 1,680 Climbing Jacksonville Center
02:45PM 28.9803 -81.6014 348° North 395 455 18,200 1,620 Climbing Jacksonville Center
02:46PM 29.0933 -81.6261 349° North 400 460 19,900 1,500 Climbing Jacksonville Center
02:47PM 29.2106 -81.6556 348° North 416 479 21,300 1,440 Climbing Jacksonville Center
02:48PM 29.3317 -81.6847 348° North 422 486 22,800 1,320 Climbing Jacksonville Center
02:49PM 29.4511 -81.7119 349° North 433 498 24,000 1,200 Climbing Jacksonville Center
02:50PM 29.5744 -81.7439 347° North 438 504 25,200 1,020 Climbing Jacksonville Center
02:51PM 29.7022 -81.7736 349° North 448 516 26,100 960 Climbing Jacksonville Center
02:52PM 29.8317 -81.8033 349° North 459 528 27,200 1,260 Climbing Jacksonville Center
02:53PM 29.9594 -81.8331 349° North 465 535 28,700 1,320 Climbing Jacksonville Center
02:54PM 30.0722 -81.8556 350° North 465 535 29,900 1,200 Climbing Jacksonville Center
02:55PM 30.1978 -81.8881 347° North 465 535 31,100 1,200 Climbing Jacksonville Center
02:56PM 30.3131 -81.9300 343° North 453 521 32,300 900 Climbing Jacksonville Center
02:57PM 30.4303 -81.9794 340° North 443 510 33,000 300 Climbing Jacksonville Center
02:58PM 30.5433 -82.0292 339° North 438 504 33,000  Level Jacksonville Center
02:59PM 30.6606 -82.0836 338° Northwest 438 504 33,000  Level Jacksonville Center
03:00PM 30.7758 -82.1358 339° North 438 504 33,000  Level Jacksonville Center
03:01PM 30.8908 -82.1833 340° North 438 504 33,000  Level Jacksonville Center
03:02PM 31.0061 -82.2333 340° North 438 504 33,000  Level Jacksonville Center
03:03PM 31.1211 -82.2833 340° North 433 498 33,000  Level Jacksonville Center
03:04PM 31.2383 -82.3314 341° North 433 498 33,000  Level Jacksonville Center
03:05PM 31.3533 -82.3842 339° North 433 498 33,000  Level Jacksonville Center
03:07PM 31.6181 -82.4975 340° North 437 503 33,000  Level Atlanta Center
03:08PM 31.7333 -82.5469 340° North 437 503 33,000  Level Atlanta Center
03:09PM 31.8489 -82.5964 340° North 432 497 33,000  Level Atlanta Center
03:10PM 31.9642 -82.6483 339° North 432 497 33,000  Level Atlanta Center
03:11PM 32.0817 -82.7006 339° North 437 503 33,000  Level Atlanta Center
03:12PM 32.2117 -82.7550 340° North 442 509 33,000  Level Atlanta Center
03:13PM 32.3269 -82.8097 338° Northwest 442 509 33,000  Level Atlanta Center
03:14PM 32.4444 -82.8600 340° North 442 509 33,000  Level Atlanta Center
03:15PM 32.5450 -82.9078 338° Northwest 442 509 33,000  Level Atlanta Center
03:16PM 32.6728 -82.9653 339° North 437 503 33,000  Level Atlanta Center
03:17PM 32.7650 -83.0064 339° North 437 503 33,000  Level Atlanta Center
03:18PM 32.8867 -83.0617 339° North 431 496 33,000  Level Atlanta Center
03:19PM 33.0017 -83.1150 339° North 436 502 33,000  Level Atlanta Center
03:20PM 33.1189 -83.1633 341° North 441 507 33,000  Level Atlanta Center
03:21PM 33.2300 -83.2167 338° Northwest 441 507 33,000 300 Level Atlanta Center
03:22PM 33.3450 -83.2656 340° North 435 501 33,700 480 Climbing Atlanta Center
03:23PM 33.4539 -83.3167 339° North 430 495 34,000 120 Climbing Atlanta Center
03:24PM 33.5650 -83.3683 339° North 430 495 34,000  Level Atlanta Center
03:25PM 33.6758 -83.4197 339° North 430 495 34,000  Level Atlanta Center
03:26PM 33.7992 -83.4739 340° North 430 495 34,000  Level Atlanta Center
03:27PM 33.9081 -83.5231 339° North 430 495 34,000  Level Atlanta Center
03:28PM 34.0189 -83.5725 340° North 430 495 34,000  Level Atlanta Center
03:29PM 34.1253 -83.6247 338° Northwest 421 484 34,000  Level Atlanta Center
03:30PM 34.2361 -83.6769 339° North 421 484 34,000  Level Atlanta Center
03:31PM 34.3447 -83.7269 339° North 415 478 34,000  Level Atlanta Center
03:32PM 34.4536 -83.7769 339° North 415 478 34,000  Level Atlanta Center
03:33PM 34.5642 -83.8294 339° North 415 478 34,000  Level Atlanta Center
03:34PM 34.6708 -83.8822 338° Northwest 415 478 34,000  Level Atlanta Center
03:35PM 34.7667 -83.9300 338° Northwest 410 472 34,000  Level Atlanta Center
03:36PM 34.8753 -83.9806 339° North 415 478 34,000  Level Atlanta Center
03:37PM 34.9817 -84.0311 339° North 415 478 34,000  Level Atlanta Center
03:38PM 35.0922 -84.0844 338° Northwest 415 478 34,000  Level Atlanta Center
03:39PM 35.2008 -84.1353 339° North 415 478 34,000  Level Atlanta Center
03:40PM 35.3092 -84.1864 339° North 415 478 34,000  Level Atlanta Center
03:41PM 35.4197 -84.2425 338° Northwest 415 478 34,000  Level Atlanta Center
03:42PM 35.5303 -84.2939 339° North 415 478 34,000  Level Atlanta Center
03:43PM 35.6428 -84.3481 339° North 421 484 34,000  Level Atlanta Center
03:44PM 35.7553 -84.3994 340° North 421 484 34,000  Level Atlanta Center
03:45PM 35.8656 -84.4539 338° Northwest 421 484 34,000  Level Atlanta Center
03:46PM 35.9886 -84.5136 339° North 427 491 34,000  Level Atlanta Center
03:47PM 36.1008 -84.5656 339° North 427 491 34,000  Level Atlanta Center
03:49PM 36.2811 -84.6517 339° North 433 498 34,000  Level Indianapolis Center
03:50PM 36.3919 -84.7103 337° Northwest 433 498 34,000  Level Indianapolis Center
03:51PM 36.5247 -84.7769 338° Northwest 431 496 34,000  Level Indianapolis Center
03:52PM 36.6369 -84.8339 338° Northwest 435 501 34,000  Level Indianapolis Center
03:53PM 36.7494 -84.8900 338° Northwest 436 502 34,000  Level Indianapolis Center
03:54PM 36.8606 -84.9489 337° Northwest 438 504 34,000  Level Indianapolis Center
03:55PM 36.9719 -85.0100 336° Northwest 437 503 34,000  Level Indianapolis Center
03:56PM 37.0833 -85.0689 337° Northwest 434 499 34,000  Level Indianapolis Center
03:57PM 37.2117 -85.1411 336° Northwest 432 497 34,000  Level Indianapolis Center
03:58PM 37.3256 -85.2011 337° Northwest 439 505 34,000  Level Indianapolis Center
03:59PM 37.4378 -85.2642 336° Northwest 440 506 34,000  Level Indianapolis Center
04:00PM 37.5503 -85.3264 336° Northwest 441 507 34,000  Level Indianapolis Center
04:01PM 37.6628 -85.3919 335° Northwest 442 509 34,000  Level Indianapolis Center
04:02PM 37.7761 -85.4525 337° Northwest 445 512 34,000  Level Indianapolis Center
04:03PM 37.8900 -85.5139 337° Northwest 453 521 34,000  Level Indianapolis Center
04:04PM 38.0247 -85.5903 336° Northwest 443 510 34,000  Level Indianapolis Center
04:05PM 38.1383 -85.6550 336° Northwest 446 513 34,000  Level Indianapolis Center
04:06PM 38.2533 -85.7186 337° Northwest 448 516 34,000  Level Indianapolis Center
04:07PM 38.3686 -85.7842 336° Northwest 453 521 34,000  Level Indianapolis Center
04:08PM 38.4833 -85.8506 336° Northwest 454 522 34,000  Level Indianapolis Center
04:09PM 38.5975 -85.9144 336° Northwest 451 519 34,000  Level Indianapolis Center
04:10PM 38.7125 -85.9800 336° Northwest 453 521 34,000  Level Indianapolis Center
04:11PM 38.8261 -86.0464 336° Northwest 450 518 34,000  Level Indianapolis Center
04:12PM 38.9614 -86.1250 336° Northwest 452 520 34,000  Level Indianapolis Center
04:13PM 39.0739 -86.1886 336° Northwest 445 512 34,000  Level Indianapolis Center
04:15PM 39.1878 -86.2558 335° Northwest 448 516 34,000  Level Indianapolis Center
04:16PM 39.3011 -86.3214 336° Northwest 446 513 34,000  Level Indianapolis Center
04:17PM 39.4153 -86.3878 336° Northwest 448 516 34,000  Level Indianapolis Center
04:18PM 39.5294 -86.4550 336° Northwest 447 514 34,000  Level Indianapolis Center
04:19PM 39.6425 -86.5219 335° Northwest 442 509 34,000  Level Indianapolis Center
04:20PM 39.7550 -86.5886 336° Northwest 439 505 34,000  Level Indianapolis Center
04:21PM 39.8900 -86.6686 336° Northwest 439 505 34,000  Level Indianapolis Center
04:22PM 40.0008 -86.7331 336° Northwest 436 502 34,000  Level Indianapolis Center
04:23PM 40.1211 -86.7594 350° North 437 503 34,000  Level Indianapolis Center
04:23PM 40.1950 -86.7794 348° North 442 509 34,000  Level Chicago Center
04:25PM 40.3397 -86.8086 351° North 438 504 34,000  Level Chicago Center
04:26PM 40.4603 -86.8367 350° North 440 506 34,000 -180 Level Chicago Center
04:27PM 40.5833 -86.8600 352° North 445 512 33,700 -540 Descending Chicago Center
04:28PM 40.7036 -86.8864 351° North 441 507 33,000 -360 Descending Chicago Center
04:29PM 40.8417 -86.9178 350° North 437 503 33,000  Level Chicago Center
04:30PM 40.9558 -86.9458 349° North 424 488 33,000 -180 Level Chicago Center
04:31PM 41.0717 -86.9725 350° North 424 488 32,700 -1,020 Descending Chicago Center
04:32PM 41.1886 -86.9983 351° North 428 493 31,000 -2,400 Descending Chicago Center
04:33PM 41.3042 -87.0253 350° North 426 490 27,800 -3,360 Descending Chicago Center
04:34PM 41.4406 -87.0569 350° North 419 482 24,100 -1,860 Descending Chicago Center
04:35PM 41.5550 -87.0825 351° North 421 484 24,000 -60 Descending Chicago Center
04:36PM 41.6708 -87.1089 350° North 425 489 24,000 -120 Level Chicago Center
04:37PM 41.7844 -87.1367 350° North 421 484 23,800 -1,020 Descending Chicago Center
04:38PM 41.9186 -87.1672 350° North 412 474 22,000 -1,620 Descending Chicago Center
04:39PM 42.0283 -87.1925 350° North 405 466 20,500 -1,380 Descending Chicago Center
04:40PM 42.1369 -87.2153 351° North 400 460 19,200 -1,440 Descending Chicago Center
04:41PM 42.2447 -87.2419 350° North 397 457 17,600 -1,620 Descending Chicago Center
04:42PM 42.3614 -87.2683 351° North 387 445 15,900 -2,400 Descending Chicago Center
04:43PM 42.4658 -87.2922 350° North 381 438 12,700 -2,880 Descending Chicago Center
04:44PM 42.5658 -87.3164 350° North 368 423 10,000 -1,320 Descending Chicago Center
04:45PM 42.6628 -87.3406 350° North 357 411 10,000  Level Chicago Center
04:46PM 42.7322 -87.4436 313° West 352 405 10,000  Level Chicago Center
04:47PM 42.7775 -87.5611 298° West 350 403 10,000  Level Chicago Center
04:48PM 42.8206 -87.6764 297° West 341 392 10,000 -900 Level Chicago Center
04:49PM 42.8628 -87.7833 298° West 276 318 8,200 -1,500 Descending Chicago Center
04:50PM 42.8608 -87.8847 269° West 284 327 7,000 -1,380 Descending Chicago Center
04:51PM 42.8436 -87.9836 257° West 270 311 5,400 -1,980 Descending Chicago Center
04:52PM 42.8453 -88.0786 271° West 267 307 3,000 -1,320 Descending Chicago Center
04:53PM 42.9006 -88.0533 19° North 246 283 2,700 -480 Descending Chicago Center
04:54PM 42.9167 -88.0333 42° Northeast 174 200 2,400 -840 Descending KMKE
04:55PM 42.9167 -87.9833 90° East 119 137 1,700 -720 Descending KMKE
04:56PM 42.9333 -87.9333 66° East 127 146 900 -780 Descending KMKE